createdAt,value
2022-09-23T00:02:13.633Z,2.90
2022-09-23T00:05:15.693Z,2.83
2022-09-23T00:08:17.257Z,2.50
2022-09-23T00:11:29.274Z,2.85
2022-09-23T00:14:31.337Z,2.90
2022-09-23T00:17:33.004Z,2.90
2022-09-23T00:20:36.250Z,2.83
2022-09-23T00:23:38.786Z,2.72
2022-09-23T00:26:40.398Z,3.27
2022-09-23T00:29:41.968Z,2.72
2022-09-23T00:32:43.503Z,3.20
2022-09-23T00:35:45.087Z,2.78
2022-09-23T00:38:46.944Z,2.90
2022-09-23T00:41:48.775Z,2.80
2022-09-23T00:44:59.365Z,2.90
2022-09-23T00:48:02.653Z,2.67
2022-09-23T00:51:07.624Z,2.85
2022-09-23T00:54:09.668Z,2.58
2022-09-23T00:57:12.072Z,2.60
2022-09-23T01:00:14.494Z,2.70
2022-09-23T01:03:16.470Z,2.80
2022-09-23T01:06:18.091Z,3.03
2022-09-23T01:09:21.546Z,2.67
2022-09-23T01:16:08.630Z,3.55
2022-09-23T01:19:47.821Z,2.90
2022-09-23T01:23:29.601Z,3.05
2022-09-23T01:26:49.880Z,2.78
2022-09-23T01:30:14.535Z,3.05
2022-09-23T01:33:34.616Z,3.00
2022-09-23T01:36:42.726Z,2.70
2022-09-23T01:39:56.426Z,3.45
2022-09-23T01:43:13.310Z,3.05
2022-09-23T01:46:22.259Z,3.22
2022-09-23T01:49:34.593Z,2.75
2022-09-23T01:52:41.668Z,3.47
2022-09-23T01:55:50.232Z,3.20
2022-09-23T01:59:16.842Z,3.83
2022-09-23T02:02:29.070Z,3.50
2022-09-23T02:05:37.510Z,3.05
2022-09-23T02:08:45.943Z,3.55
2022-09-23T02:11:49.602Z,3.28
2022-09-23T02:15:15.573Z,3.67
2022-09-23T02:18:22.596Z,3.20
2022-09-23T02:21:33.879Z,3.78
2022-09-23T02:24:38.920Z,3.55
2022-09-23T02:27:46.438Z,3.67
2022-09-23T02:30:56.166Z,3.80
2022-09-23T02:34:06.663Z,3.97
2022-09-23T02:37:43.605Z,3.33
2022-09-23T02:41:04.648Z,3.67
2022-09-23T02:44:09.992Z,3.33
2022-09-23T02:47:11.651Z,3.67
2022-09-23T02:50:13.820Z,4.10
2022-09-23T02:53:16.192Z,3.40
2022-09-23T02:56:21.282Z,3.40
2022-09-23T02:59:24.251Z,3.20
2022-09-23T03:02:51.202Z,3.53
2022-09-23T03:05:57.609Z,3.20
2022-09-23T03:09:44.440Z,3.13
2022-09-23T03:13:17.104Z,3.55
2022-09-23T03:16:33.765Z,3.30
2022-09-23T03:19:37.834Z,3.25
2022-09-23T03:22:54.928Z,3.80
2022-09-23T03:26:00.237Z,3.20
2022-09-23T03:29:09.424Z,3.78
2022-09-23T03:32:12.952Z,3.70
2022-09-23T03:38:17.349Z,3.10
2022-09-23T03:41:28.947Z,3.25
2022-09-23T03:44:37.793Z,3.45
2022-09-23T03:47:39.811Z,3.20
2022-09-23T03:50:41.440Z,3.20
2022-09-23T03:53:43.032Z,3.00
2022-09-23T03:56:44.646Z,3.35
2022-09-23T03:59:46.201Z,3.60
2022-09-23T04:02:49.828Z,3.63
2022-09-23T04:05:51.853Z,4.75
2022-09-23T04:08:53.466Z,4.40
2022-09-23T04:11:57.784Z,4.28
2022-09-23T04:15:00.084Z,4.60
2022-09-23T04:18:01.675Z,4.00
2022-09-23T04:21:03.301Z,4.63
2022-09-23T04:24:05.341Z,4.15
2022-09-23T04:27:06.952Z,4.40
2022-09-23T04:30:09.112Z,4.18
2022-09-23T04:33:11.312Z,3.92
2022-09-23T04:36:12.907Z,4.22
2022-09-23T04:39:15.356Z,4.10
2022-09-23T04:42:17.006Z,4.30
2022-09-23T04:45:18.594Z,4.15
2022-09-23T04:48:20.154Z,4.10
2022-09-23T04:51:24.807Z,4.60
2022-09-23T04:54:26.524Z,4.18
2022-09-23T04:57:29.285Z,3.67
2022-09-23T05:00:30.934Z,4.25
2022-09-23T05:03:35.681Z,3.92
2022-09-23T05:06:37.372Z,4.32
2022-09-23T05:09:39.232Z,4.30
2022-09-23T05:12:42.669Z,4.18
2022-09-23T05:15:45.062Z,4.57
2022-09-23T05:18:50.315Z,5.28
2022-09-23T05:21:53.186Z,6.47
2022-09-23T05:24:55.168Z,7.10
2022-09-23T05:27:56.932Z,6.22
2022-09-23T05:31:06.541Z,6.18
2022-09-23T05:34:08.300Z,5.65
2022-09-23T05:37:10.081Z,6.10
2022-09-23T05:40:11.678Z,6.60
2022-09-23T05:43:13.736Z,8.15
2022-09-23T05:46:17.913Z,7.53
2022-09-23T05:49:19.631Z,6.10
2022-09-23T05:52:21.349Z,5.95
2022-09-23T05:55:22.901Z,4.80
2022-09-23T05:58:25.337Z,5.40
2022-09-23T06:01:29.073Z,4.18
2022-09-23T06:04:31.070Z,4.97
2022-09-23T06:07:32.729Z,4.93
2022-09-23T06:10:39.349Z,5.88
2022-09-23T06:13:44.000Z,4.80
2022-09-23T06:16:45.654Z,10.32
2022-09-23T06:19:47.248Z,12.95
2022-09-23T06:22:52.705Z,9.07
2022-09-23T06:26:04.248Z,6.78
2022-09-23T06:29:11.736Z,7.85
2022-09-23T06:32:13.359Z,7.10
2022-09-23T06:35:24.875Z,7.88
2022-09-23T06:38:29.720Z,6.22
2022-09-23T06:41:31.252Z,5.47
2022-09-23T06:44:33.078Z,6.57
2022-09-23T06:47:34.779Z,7.50
2022-09-23T06:50:36.761Z,6.20
2022-09-23T06:53:39.425Z,6.45
2022-09-23T06:56:44.680Z,7.43
2022-09-23T06:59:47.273Z,7.10
2022-09-23T07:02:49.115Z,8.05
2022-09-23T07:05:54.833Z,7.55
2022-09-23T07:08:56.403Z,6.78
2022-09-23T07:11:58.063Z,6.88
2022-09-23T07:14:59.648Z,6.65
2022-09-23T07:18:02.411Z,6.55
2022-09-23T07:21:09.546Z,5.40
2022-09-23T07:24:11.328Z,5.32
2022-09-23T07:27:19.958Z,6.03
2022-09-23T07:30:25.405Z,6.13
2022-09-23T07:33:32.957Z,5.25
2022-09-23T07:36:37.253Z,5.38
2022-09-23T07:39:39.821Z,5.78
2022-09-23T07:42:41.509Z,4.80
2022-09-23T07:45:43.623Z,4.32
2022-09-23T07:48:45.923Z,4.60
2022-09-23T07:51:48.074Z,4.88
2022-09-23T07:54:49.646Z,5.93
2022-09-23T07:57:51.230Z,4.97
2022-09-23T08:00:53.650Z,4.75
2022-09-23T08:04:01.031Z,4.80
2022-09-23T08:07:04.994Z,5.18
2022-09-23T08:10:07.915Z,4.15
2022-09-23T08:13:09.878Z,3.72
2022-09-23T08:16:11.614Z,4.03
2022-09-23T08:19:14.264Z,3.80
2022-09-23T08:22:16.306Z,3.90
2022-09-23T08:25:22.156Z,4.00
2022-09-23T08:28:24.695Z,3.85
2022-09-23T08:31:26.556Z,3.80
2022-09-23T08:34:28.675Z,3.50
2022-09-23T08:37:30.325Z,3.83
2022-09-23T08:40:39.052Z,3.65
2022-09-23T08:43:48.784Z,3.42
2022-09-23T08:47:13.401Z,4.15
2022-09-23T08:50:23.642Z,3.78
2022-09-23T08:53:29.245Z,3.35
2022-09-23T08:56:32.193Z,3.15
2022-09-23T08:59:44.916Z,3.20
2022-09-23T09:02:50.178Z,3.40
2022-09-23T09:05:56.294Z,3.25
2022-09-23T09:09:01.274Z,3.53
2022-09-23T09:12:17.855Z,2.60
2022-09-23T09:15:26.616Z,2.40
2022-09-23T09:18:33.761Z,2.63
2022-09-23T09:21:40.162Z,2.70
2022-09-23T09:24:45.694Z,2.97
2022-09-23T09:27:47.585Z,2.60
2022-09-23T09:30:54.374Z,2.22
2022-09-23T09:34:13.203Z,2.80
2022-09-23T09:37:25.557Z,2.20
2022-09-23T09:40:27.255Z,2.30
2022-09-23T09:43:28.965Z,2.65
2022-09-23T09:46:36.762Z,2.88
2022-09-23T09:49:54.221Z,2.17
2022-09-23T09:53:15.254Z,2.20
2022-09-23T09:56:21.408Z,1.95
2022-09-23T09:59:28.502Z,2.42
2022-09-23T10:02:33.632Z,2.50
2022-09-23T10:05:47.426Z,2.60
2022-09-23T10:09:08.643Z,2.10
2022-09-23T10:12:15.891Z,2.17
2022-09-23T10:15:30.874Z,2.00
2022-09-23T10:18:50.000Z,2.38
2022-09-23T10:21:59.748Z,2.08
2022-09-23T10:25:07.420Z,1.88
2022-09-23T10:28:32.523Z,2.17
2022-09-23T10:31:35.629Z,2.45
2022-09-23T10:34:43.593Z,2.03
2022-09-23T10:37:49.624Z,2.50
2022-09-23T10:44:46.228Z,2.60
2022-09-23T10:47:53.430Z,2.20
2022-09-23T10:50:59.461Z,1.95
2022-09-23T10:54:19.485Z,1.67
2022-09-23T10:57:41.134Z,2.05
2022-09-23T11:00:55.390Z,1.83
2022-09-23T11:04:18.647Z,1.67
2022-09-23T11:07:40.309Z,2.10
2022-09-23T11:11:00.417Z,1.77
2022-09-23T11:14:26.627Z,1.58
2022-09-23T11:17:46.467Z,1.63
2022-09-23T11:21:01.073Z,1.65
2022-09-23T11:24:36.499Z,1.80
2022-09-23T11:27:38.031Z,1.67
2022-09-23T11:31:05.604Z,1.70
2022-09-23T11:34:25.115Z,1.60
2022-09-23T11:37:32.027Z,1.90
2022-09-23T11:40:43.864Z,1.48
2022-09-23T11:43:52.808Z,2.13
2022-09-23T11:47:09.092Z,1.60
2022-09-23T11:50:17.770Z,2.03
2022-09-23T11:53:26.965Z,1.83
2022-09-23T11:56:39.807Z,1.80
2022-09-23T11:59:51.770Z,1.92
2022-09-23T12:03:35.357Z,2.10
2022-09-23T12:06:54.787Z,1.95
2022-09-23T12:10:05.642Z,2.03
2022-09-23T12:13:27.287Z,1.80
2022-09-23T12:16:43.805Z,1.70
2022-09-23T12:20:13.486Z,1.80
2022-09-23T12:23:36.912Z,1.80
2022-09-23T12:26:39.104Z,2.00
2022-09-23T12:29:41.485Z,1.88
2022-09-23T12:32:43.362Z,1.67
2022-09-23T12:35:46.159Z,1.98
2022-09-23T12:41:58.452Z,2.08
2022-09-23T12:45:21.270Z,1.80
2022-09-23T12:48:43.087Z,1.73
2022-09-23T12:52:25.125Z,1.90
2022-09-23T12:55:47.011Z,1.95
2022-09-23T12:58:48.573Z,1.70
2022-09-23T13:01:50.354Z,1.60
2022-09-23T13:05:16.177Z,1.90
2022-09-23T13:08:24.838Z,1.77
2022-09-23T13:11:29.616Z,1.60
2022-09-23T13:14:33.036Z,1.60
2022-09-23T13:17:39.223Z,1.85
2022-09-23T13:20:40.985Z,1.67
2022-09-23T13:24:23.525Z,1.95
2022-09-23T13:27:32.660Z,1.63
2022-09-23T13:30:34.573Z,1.50
2022-09-23T13:33:46.153Z,1.93
2022-09-23T13:36:49.942Z,1.77
2022-09-23T13:39:51.982Z,1.70
2022-09-23T13:43:24.327Z,1.87
2022-09-23T13:46:29.819Z,1.90
2022-09-23T13:49:35.398Z,1.75
2022-09-23T13:52:36.985Z,1.70
2022-09-23T13:55:40.002Z,1.88
2022-09-23T13:58:41.615Z,1.60
2022-09-23T14:01:45.691Z,1.67
2022-09-23T14:04:47.270Z,1.73
2022-09-23T14:07:50.191Z,1.60
2022-09-23T14:16:58.081Z,1.70
2022-09-23T14:19:59.677Z,1.50
2022-09-23T14:23:12.033Z,1.40
2022-09-23T14:26:13.664Z,1.60
2022-09-23T14:29:23.349Z,1.70
2022-09-23T14:32:28.377Z,1.50
2022-09-23T14:35:42.208Z,1.70
2022-09-23T14:38:52.480Z,1.50
2022-09-23T14:41:54.337Z,1.67
2022-09-23T14:44:56.127Z,1.70
2022-09-23T14:48:10.096Z,1.55
2022-09-23T14:51:16.822Z,1.55
2022-09-23T14:54:36.842Z,1.48
2022-09-23T14:57:44.001Z,1.30
2022-09-23T15:00:54.299Z,1.50
2022-09-23T15:03:57.288Z,1.45
2022-09-23T15:10:26.255Z,1.30
2022-09-23T15:13:31.462Z,1.50
2022-09-23T15:16:35.525Z,1.40
2022-09-23T15:19:38.036Z,1.52
2022-09-23T15:22:45.383Z,1.45
2022-09-23T15:25:51.308Z,1.60
2022-09-23T15:28:56.093Z,1.30
2022-09-23T15:31:58.458Z,1.63
2022-09-23T15:35:00.189Z,1.55
2022-09-23T15:38:03.346Z,1.73
2022-09-23T15:41:05.188Z,1.60
2022-09-23T15:44:21.732Z,1.75
2022-09-23T15:47:23.542Z,1.40
2022-09-23T15:50:25.243Z,1.67
2022-09-23T15:53:28.011Z,1.60
2022-09-23T15:56:29.725Z,1.60
2022-09-23T15:59:31.503Z,1.30
2022-09-23T16:02:33.427Z,1.80
2022-09-23T16:05:38.013Z,3.55
2022-09-23T16:08:42.298Z,3.42
2022-09-23T16:11:47.228Z,3.70
2022-09-23T16:14:48.979Z,2.20
2022-09-23T16:17:51.295Z,1.63
2022-09-23T16:20:54.194Z,2.60
2022-09-23T16:23:57.394Z,2.08
2022-09-23T16:27:07.789Z,1.85
2022-09-23T16:30:10.269Z,1.58
2022-09-23T16:33:14.136Z,1.80
2022-09-23T16:36:27.749Z,1.80
2022-09-23T16:39:29.375Z,4.25
2022-09-23T16:42:30.993Z,3.78
2022-09-23T16:45:32.793Z,2.60
2022-09-23T16:48:35.491Z,2.40
2022-09-23T16:51:38.479Z,2.83
2022-09-23T16:54:42.126Z,6.47
2022-09-23T16:57:43.736Z,36.90
2022-09-23T17:01:04.090Z,3.40
2022-09-23T17:04:07.074Z,3.90
2022-09-23T17:07:08.616Z,4.45
2022-09-23T17:10:11.827Z,3.55
2022-09-23T17:13:17.344Z,2.22
2022-09-23T17:16:28.067Z,3.30
2022-09-23T17:19:29.828Z,3.75
2022-09-23T17:22:33.519Z,3.72
2022-09-23T17:25:35.742Z,3.20
2022-09-23T17:28:37.475Z,3.50
2022-09-23T17:31:39.382Z,10.90
2022-09-23T17:34:43.982Z,20.00
2022-09-23T17:37:47.621Z,4.78
2022-09-23T17:40:53.924Z,3.33
2022-09-23T17:43:57.100Z,4.53
2022-09-23T17:50:00.555Z,3.95
2022-09-23T17:53:02.165Z,6.57
2022-09-23T17:56:16.280Z,9.18
2022-09-23T17:59:18.458Z,3.55
2022-09-23T18:02:22.493Z,6.43
2022-09-23T18:05:24.415Z,10.00
2022-09-23T18:08:26.059Z,4.70
2022-09-23T18:11:29.620Z,7.43
2022-09-23T18:14:31.310Z,4.70
2022-09-23T18:17:33.106Z,6.57
2022-09-23T18:20:34.929Z,4.97
2022-09-23T18:23:37.775Z,5.22
2022-09-23T18:26:39.893Z,4.78
2022-09-23T18:29:41.533Z,5.88
2022-09-23T18:32:43.600Z,8.50
2022-09-23T18:35:45.526Z,6.57
2022-09-23T18:38:48.318Z,4.38
2022-09-23T18:41:50.434Z,4.07
2022-09-23T18:44:56.259Z,4.43
2022-09-23T18:48:16.307Z,3.92
2022-09-23T18:51:20.839Z,3.67
2022-09-23T18:54:27.755Z,3.03
2022-09-23T18:57:29.745Z,3.35
2022-09-23T19:00:31.424Z,3.70
2022-09-23T19:03:34.587Z,4.22
2022-09-23T19:09:39.239Z,3.90
2022-09-23T19:12:41.102Z,3.90
2022-09-23T19:15:42.910Z,3.63
2022-09-23T19:18:46.545Z,4.32
2022-09-23T19:21:48.353Z,4.55
2022-09-23T19:24:50.240Z,4.30
2022-09-23T19:27:56.574Z,3.70
2022-09-23T19:30:58.750Z,2.65
2022-09-23T19:34:13.776Z,3.10
2022-09-23T19:37:16.551Z,3.30
2022-09-23T19:40:18.486Z,8.73
2022-09-23T19:43:21.250Z,7.07
2022-09-23T19:46:23.442Z,8.57
2022-09-23T19:49:28.027Z,8.77
2022-09-23T19:55:37.129Z,6.30
2022-09-23T19:58:39.156Z,6.13
2022-09-23T20:01:41.480Z,12.95
2022-09-23T20:04:43.510Z,7.72
2022-09-23T20:07:45.553Z,8.02
2022-09-23T20:10:50.597Z,7.80
2022-09-23T20:14:00.896Z,8.60
2022-09-23T20:17:03.093Z,7.63
2022-09-23T20:20:05.429Z,7.05
2022-09-23T20:23:07.181Z,4.93
2022-09-23T20:26:28.123Z,5.78
2022-09-23T20:29:29.701Z,5.70
2022-09-23T20:32:31.302Z,7.45
2022-09-23T20:35:33.168Z,7.45
2022-09-23T20:38:37.146Z,7.35
2022-09-23T20:41:39.884Z,10.70
2022-09-23T20:44:43.170Z,11.02
2022-09-23T20:50:52.556Z,7.57
2022-09-23T20:53:54.182Z,7.28
2022-09-23T20:56:55.925Z,5.80
2022-09-23T20:59:58.004Z,4.85
2022-09-23T21:02:59.968Z,5.20
2022-09-23T21:06:03.375Z,4.93
2022-09-23T21:09:06.374Z,5.38
2022-09-23T21:12:08.021Z,5.22
2022-09-23T21:15:10.070Z,4.93
2022-09-23T21:18:15.591Z,5.38
2022-09-23T21:21:20.027Z,5.10
2022-09-23T21:24:57.329Z,5.15
2022-09-23T21:27:44.215Z,5.65
2022-09-23T21:30:49.772Z,5.47
2022-09-23T21:34:01.808Z,6.00
2022-09-23T21:37:03.978Z,6.03
2022-09-23T21:40:24.690Z,8.00
2022-09-23T21:43:28.224Z,7.47
2022-09-23T21:46:33.566Z,6.82
2022-09-23T21:49:37.992Z,9.38
2022-09-23T21:52:39.750Z,11.98
2022-09-23T21:55:41.684Z,9.80
2022-09-23T21:58:44.228Z,10.20
2022-09-23T22:01:47.494Z,11.77
2022-09-23T22:04:50.887Z,9.57
2022-09-23T22:07:54.285Z,8.73
2022-09-23T22:13:59.014Z,7.30
2022-09-23T22:17:03.078Z,7.60
2022-09-23T22:20:05.035Z,6.13
2022-09-23T22:23:06.637Z,6.40
2022-09-23T22:26:08.316Z,4.75
2022-09-23T22:29:31.462Z,3.95
2022-09-23T22:32:43.344Z,4.20
2022-09-23T22:35:45.090Z,4.60
2022-09-23T22:38:46.677Z,5.40
2022-09-23T22:41:50.591Z,5.13
2022-09-23T22:44:52.275Z,5.28
2022-09-23T22:47:55.652Z,5.18
2022-09-23T22:50:57.274Z,5.38
2022-09-23T22:53:58.921Z,5.68
2022-09-23T22:57:03.167Z,5.05
2022-09-23T23:00:07.177Z,6.47
2022-09-23T23:03:08.885Z,6.43
2022-09-23T23:06:10.497Z,7.95
2022-09-23T23:09:16.150Z,7.50
2022-09-23T23:12:21.575Z,8.80
2022-09-23T23:15:23.286Z,8.13
2022-09-23T23:18:27.006Z,8.82
2022-09-23T23:21:28.775Z,8.18
2022-09-23T23:24:30.481Z,6.43
2022-09-23T23:27:32.073Z,7.05
2022-09-23T23:30:34.981Z,7.30
2022-09-23T23:33:37.088Z,6.68
2022-09-23T23:36:39.431Z,6.65
2022-09-23T23:39:41.027Z,7.03
2022-09-23T23:42:42.646Z,7.50
2022-09-23T23:45:44.314Z,7.50
2022-09-23T23:48:48.200Z,7.03
2022-09-23T23:51:49.949Z,7.90
2022-09-23T23:54:51.626Z,6.85
2022-09-23T23:57:54.172Z,8.27
